Time;durP1;ratioP1;P1;durP2;ratioP2;P2;SDS_P1;SDS_P2;PMS_P1;PMS_P2;Temp;Humidity;BMP_temperature;BMP_pressure;BME280_temperature;BME280_humidity;BME280_pressure;Samples;Min_cycle;Max_cycle;Signal;HPM_P1;HPM_P2
2021/03/08 00:01:43;;;;;;;13.20;10.73;;;;;;;2.78;56.77;99637.80;1757765;80;21093;-86
2021/03/08 00:04:10;;;;;;;13.93;12.33;;;;;;;2.81;56.75;99626.98;1760850;80;21195;-85
2021/03/08 00:06:37;;;;;;;14.43;12.67;;;;;;;2.81;56.70;99624.34;1759970;80;21179;-86
2021/03/08 00:09:05;;;;;;;12.33;10.93;;;;;;;2.81;56.73;99615.13;1770505;80;21200;-85
2021/03/08 00:11:32;;;;;;;12.87;11.57;;;;;;;2.80;56.70;99621.36;1765229;79;21091;-85
2021/03/08 00:13:59;;;;;;;14.97;10.90;;;;;;;2.78;56.82;99611.48;1716434;82;21194;-86
2021/03/08 00:16:26;;;;;;;12.60;11.30;;;;;;;2.77;56.86;99605.05;1698930;82;21206;-85
2021/03/08 00:18:54;;;;;;;14.47;12.03;;;;;;;2.78;56.85;99609.34;1706766;82;21233;-84
2021/03/08 00:21:22;;;;;;;13.97;11.63;;;;;;;2.73;56.93;99604.53;1710176;82;21221;-86
2021/03/08 00:23:50;;;;;;;12.47;11.27;;;;;;;2.70;57.00;99603.55;1710223;81;21273;-82
2021/03/08 00:26:16;;;;;;;;;;;;;;;2.69;57.11;99597.47;1715968;82;21321;-82
2021/03/08 00:28:43;;;;;;;13.73;11.13;;;;;;;2.69;57.15;99588.73;1711204;82;20199;-86
2021/03/08 00:31:10;;;;;;;12.83;10.30;;;;;;;2.66;57.25;99595.64;1717655;82;21223;-87
2021/03/08 00:33:40;;;;;;;14.57;12.33;;;;;;;2.63;57.48;99584.09;1703315;82;21269;-85
2021/03/08 00:36:07;;;;;;;12.23;11.03;;;;;;;2.63;57.36;99586.73;1685760;83;21799;-81
2021/03/08 00:38:34;;;;;;;14.43;12.83;;;;;;;2.62;57.46;99584.59;1686304;83;21241;-85
2021/03/08 00:41:01;;;;;;;;;;;;;;;2.21;57.34;99500.67;1688587;83;21231;-82
2021/03/08 00:43:28;;;;;;;13.83;10.87;;;;;;;2.66;57.52;99581.16;1686944;83;20210;-82
2021/03/08 00:45:54;;;;;;;;;;;;;;;2.62;57.59;99566.64;1660955;84;21098;-82
2021/03/08 00:48:22;;;;;;;16.65;11.90;;;;;;;2.62;57.54;99570.59;1661277;85;20204;-81
2021/03/08 00:50:49;;;;;;;14.37;12.57;;;;;;;2.57;57.77;99565.81;1673947;84;21297;-82
2021/03/08 00:53:18;;;;;;;13.33;12.03;;;;;;;2.55;57.82;99570.91;1682520;84;21179;-82
2021/03/08 00:55:46;;;;;;;12.93;11.17;;;;;;;2.61;57.72;99571.59;1692983;83;21241;-83
2021/03/08 00:58:13;;;;;;;13.40;12.03;;;;;;;2.62;57.66;99559.59;1704378;83;21649;-83
2021/03/08 01:00:40;;;;;;;13.43;11.97;;;;;;;2.67;57.74;99570.95;1703534;83;21257;-83
2021/03/08 01:03:08;;;;;;;13.00;11.63;;;;;;;2.63;57.65;99554.66;1678122;84;21353;-84
2021/03/08 01:05:37;;;;;;;13.03;11.63;;;;;;;2.66;57.64;99553.53;1701802;83;21625;-84
2021/03/08 01:08:17;;;;;;;14.93;12.70;;;;;;;2.72;57.70;99552.91;1813591;77;22952;-84
2021/03/08 01:10:45;;;;;;;12.43;10.93;;;;;;;2.67;57.73;99553.86;1798784;78;21197;-84
2021/03/08 01:13:13;;;;;;;15.37;12.97;;;;;;;2.67;57.71;99551.22;1762442;80;21241;-85
2021/03/08 01:15:41;;;;;;;14.13;12.67;;;;;;;2.65;57.82;99538.72;1739934;80;21211;-82
2021/03/08 01:18:07;;;;;;;13.73;12.30;;;;;;;2.64;57.79;99542.34;1756797;80;21216;-82
2021/03/08 01:20:34;;;;;;;13.97;12.40;;;;;;;2.65;57.92;99535.59;1736477;80;21638;-81
2021/03/08 01:23:02;;;;;;;18.03;12.77;;;;;;;2.66;57.99;99531.17;1744258;80;21807;-80
2021/03/08 01:25:29;;;;;;;14.30;13.00;;;;;;;2.64;58.05;99531.82;1757143;80;21176;-82
2021/03/08 01:27:58;;;;;;;14.60;12.27;;;;;;;2.61;58.10;99532.94;1757692;81;21203;-82
2021/03/08 01:30:28;;;;;;;12.80;11.27;;;;;;;2.60;58.22;99529.14;1690359;82;21241;-82
2021/03/08 01:32:58;;;;;;;13.33;11.70;;;;;;;2.62;58.21;99533.76;1697339;82;21199;-83
2021/03/08 01:35:25;;;;;;;13.70;11.23;;;;;;;2.58;58.29;99535.05;1712456;82;21101;-82
2021/03/08 01:37:52;;;;;;;14.17;12.67;;;;;;;2.56;58.51;99524.69;1715841;82;21339;-82
2021/03/08 01:40:20;;;;;;;13.50;12.07;;;;;;;2.54;58.45;99526.64;1716220;82;21677;-83
2021/03/08 01:42:47;;;;;;;14.10;12.63;;;;;;;2.55;58.59;99532.76;1694431;83;21355;-83
2021/03/08 01:45:15;;;;;;;17.53;12.80;;;;;;;2.51;58.54;99523.03;1714290;82;21082;-85
2021/03/08 01:47:44;;;;;;;13.43;10.43;;;;;;;2.56;58.52;99525.19;1706784;82;21217;-81
2021/03/08 01:50:19;;;;;;;14.33;12.53;;;;;;;2.57;58.46;99520.27;1685150;83;21251;-83
2021/03/08 01:52:46;;;;;;;18.30;13.73;;;;;;;2.58;58.39;99524.53;1666227;83;21198;-82
2021/03/08 01:55:13;;;;;;;;;;;;;;;2.59;58.45;99532.77;1687997;83;21241;-81
2021/03/08 01:57:40;;;;;;;14.20;12.03;;;;;;;2.59;58.47;99531.45;1677696;84;20252;-84
2021/03/08 02:00:11;;;;;;;12.10;10.77;;;;;;;2.53;58.65;99524.52;1664910;85;21169;-82
2021/03/08 02:02:42;;;;;;;14.37;11.33;;;;;;;2.55;58.72;99531.44;1670945;85;21207;-82
2021/03/08 02:05:14;;;;;;;15.53;12.17;;;;;;;2.57;58.61;99522.40;1662747;85;21226;-81
2021/03/08 02:07:41;;;;;;;13.77;12.30;;;;;;;2.55;58.61;99523.05;1650974;84;21625;-82
2021/03/08 02:10:11;;;;;;;12.20;10.50;;;;;;;2.57;58.57;99530.30;1646471;86;21226;-82
2021/03/08 02:12:50;;;;;;;15.00;12.30;;;;;;;2.56;58.72;99526.50;1665847;84;21122;-83
2021/03/08 02:16:07;;;;;;;14.53;12.40;;;;;;;2.53;58.76;99517.12;1670307;84;21206;-82
2021/03/08 02:18:55;;;;;;;18.70;14.57;;;;;;;2.56;58.76;99523.87;1674188;84;21705;-83
2021/03/08 02:22:10;;;;;;;15.43;13.83;;;;;;;2.52;58.84;99525.52;1667340;84;21211;-81
2021/03/08 02:24:49;;;;;;;17.03;15.17;;;;;;;2.57;58.84;99529.48;1668796;84;21192;-83
2021/03/08 02:27:28;;;;;;;17.13;14.20;;;;;;;2.55;58.83;99524.86;1642896;85;21222;-83
2021/03/08 02:30:24;;;;;;;14.10;12.30;;;;;;;2.56;58.80;99537.02;1669476;84;21212;-84
2021/03/08 02:32:51;;;;;;;16.30;14.20;;;;;;;2.57;58.99;99534.23;1641984;85;21255;-85
2021/03/08 02:35:21;;;;;;;21.57;15.50;;;;;;;2.55;58.86;99527.00;1638273;85;21146;-84
2021/03/08 02:37:57;;;;;;;16.10;13.50;;;;;;;2.53;59.08;99522.38;1595328;88;21388;-85
2021/03/08 02:40:34;;;;;;;17.20;14.87;;;;;;;2.48;59.13;99528.59;1661847;84;21228;-85
2021/03/08 02:43:01;;;;;;;17.52;13.00;;;;;;;2.47;59.17;99528.28;1664189;84;21707;-85
2021/03/08 02:45:28;;;;;;;15.60;13.50;;;;;;;2.43;59.35;99528.23;1636129;84;21221;-81
2021/03/08 02:47:58;;;;;;;15.37;12.63;;;;;;;2.41;59.27;99523.15;1630003;87;21227;-85
2021/03/08 02:50:32;;;;;;;13.80;11.87;;;;;;;2.45;59.30;99520.54;1637376;85;21250;-84
2021/03/08 02:53:05;;;;;;;15.37;13.17;;;;;;;2.47;59.36;99513.81;1650994;85;21207;-87
2021/03/08 02:55:55;;;;;;;18.60;15.77;;;;;;;2.40;59.38;99504.89;1651242;84;21111;-84
2021/03/08 02:58:23;;;;;;;15.73;14.10;;;;;;;2.48;59.34;99508.87;1630465;85;21240;-84
2021/03/08 03:00:53;;;;;;;18.90;14.43;;;;;;;2.47;59.35;99510.68;1653003;84;21793;-84
2021/03/08 03:03:21;;;;;;;15.17;13.40;;;;;;;2.11;59.32;99449.48;1627139;87;21812;-84
2021/03/08 03:05:49;;;;;;;15.83;14.17;;;;;;;2.53;59.35;99516.62;1644298;85;21371;-84
2021/03/08 03:08:17;;;;;;;16.20;13.77;;;;;;;2.54;59.68;99509.55;1619781;86;21226;-84
2021/03/08 03:10:44;;;;;;;16.33;13.23;;;;;;;2.49;60.01;99511.84;1636492;86;21905;-84
2021/03/08 03:13:12;;;;;;;16.30;14.37;;;;;;;2.51;60.22;99510.70;1658763;83;21119;-85
2021/03/08 03:15:39;;;;;;;15.60;14.00;;;;;;;2.47;60.76;99522.52;1643408;85;21207;-87
2021/03/08 03:18:07;;;;;;;16.37;14.17;;;;;;;2.47;61.09;99516.44;1650855;85;21183;-86
2021/03/08 03:20:36;;;;;;;16.17;14.27;;;;;;;2.39;61.66;99521.13;1627789;86;21187;-85
2021/03/08 03:23:05;;;;;;;17.50;14.73;;;;;;;2.30;62.24;99529.98;1633096;85;21144;-82
2021/03/08 03:25:32;;;;;;;18.03;15.77;;;;;;;2.24;62.68;99525.32;1623659;87;21502;-82
2021/03/08 03:28:00;;;;;;;17.77;14.60;;;;;;;2.22;62.97;99525.97;1614571;86;21847;-82
2021/03/08 03:30:28;;;;;;;;;;;;;;;2.17;63.17;99521.66;1625800;87;21262;-83
2021/03/08 03:32:56;;;;;;;17.80;14.60;;;;;;;2.18;63.07;99524.62;1622952;86;20600;-84
2021/03/08 03:35:26;;;;;;;15.13;12.67;;;;;;;2.09;63.54;99525.05;1654637;86;21062;-85
2021/03/08 03:37:53;;;;;;;15.53;12.80;;;;;;;2.10;63.54;99522.77;1657804;86;21150;-83
2021/03/08 03:40:20;;;;;;;15.27;13.50;;;;;;;2.08;63.93;99521.61;1670871;85;21715;-83
2021/03/08 03:45:23;;;;;;;18.77;16.95;;;;;;;2.07;63.98;99519.13;1763254;77;29046;-83
2021/03/08 03:47:50;;;;;;;16.10;14.37;;;;;;;2.24;63.71;99524.00;1731730;81;21646;-85
2021/03/08 03:50:21;;;;;;;15.00;13.27;;;;;;;2.34;63.61;99523.43;1714241;83;21771;-84
2021/03/08 03:52:48;;;;;;;15.00;13.47;;;;;;;2.27;63.95;99519.77;1696567;82;21222;-85
2021/03/08 03:55:18;;;;;;;15.17;13.67;;;;;;;2.19;64.43;99525.80;1715335;81;21701;-84
2021/03/08 03:58:22;;;;;;;15.93;13.47;;;;;;;2.15;64.70;99524.46;1707029;82;21203;-84
2021/03/08 04:01:06;;;;;;;18.37;15.20;;;;;;;2.12;64.87;99526.89;1694740;83;21137;-85
2021/03/08 04:03:57;;;;;;;14.53;13.00;;;;;;;2.06;64.93;99521.44;1724405;81;21197;-83
2021/03/08 04:06:34;;;;;;;14.67;12.93;;;;;;;2.06;65.09;99520.94;1718540;82;21193;-84
2021/03/08 04:09:03;;;;;;;17.70;15.40;;;;;;;2.03;64.99;99513.84;1718848;81;21227;-83
2021/03/08 04:11:34;;;;;;;17.67;14.60;;;;;;;1.99;64.85;99519.89;1724570;81;21071;-85
2021/03/08 04:14:02;;;;;;;14.90;13.30;;;;;;;1.97;65.19;99512.66;1730347;81;21926;-86
2021/03/08 04:16:39;;;;;;;15.90;13.43;;;;;;;1.97;65.23;99513.97;1722486;81;21162;-82
2021/03/08 04:19:06;;;;;;;14.55;10.98;;;;;;;1.94;65.70;99522.14;1723511;82;21693;-83
2021/03/08 04:21:34;;;;;;;;;;;;;;;1.86;66.24;99516.34;1722335;81;21180;-84
2021/03/08 04:24:04;;;;;;;18.53;12.57;;;;;;;1.86;66.18;99522.09;1724091;81;20258;-83
2021/03/08 04:26:31;;;;;;;18.57;15.13;;;;;;;1.77;66.77;99522.50;1717815;82;21175;-83
2021/03/08 04:28:59;;;;;;;17.87;14.13;;;;;;;1.80;67.06;99525.34;1730720;81;22278;-83
2021/03/08 04:31:26;;;;;;;16.57;13.70;;;;;;;1.80;67.96;99531.41;1732030;81;21180;-83
2021/03/08 04:33:54;;;;;;;17.13;13.50;;;;;;;1.76;68.12;99522.19;1710883;81;21669;-86
2021/03/08 04:36:20;;;;;;;;;;;;;;;1.81;68.97;99525.66;1715900;81;21227;-88
2021/03/08 04:38:48;;;;;;;19.65;15.15;;;;;;;1.78;69.02;99524.66;1707730;81;20205;-87
2021/03/08 04:41:15;;;;;;;15.70;12.97;;;;;;;1.61;69.15;99520.58;1720125;81;21337;-86
2021/03/08 04:43:44;;;;;;;16.13;14.27;;;;;;;1.56;69.24;99521.50;1719525;81;21669;-85
2021/03/08 04:46:13;;;;;;;17.13;13.80;;;;;;;1.57;69.31;99530.23;1694670;82;21065;-87
2021/03/08 04:48:41;;;;;;;17.17;15.17;;;;;;;1.63;69.10;99523.05;1663447;85;21168;-87
2021/03/08 04:51:08;;;;;;;19.00;15.13;;;;;;;1.67;68.92;99530.97;1693146;83;21160;-86
2021/03/08 04:53:36;;;;;;;18.53;15.00;;;;;;;1.68;68.97;99532.14;1681200;83;21188;-88
2021/03/08 04:56:03;;;;;;;20.57;16.17;;;;;;;1.77;68.96;99532.20;1668450;83;21504;-86
2021/03/08 04:58:31;;;;;;;29.37;21.43;;;;;;;1.76;68.74;99526.13;1682573;85;21213;-86
2021/03/08 05:00:58;;;;;;;25.90;20.43;;;;;;;1.85;68.48;99532.28;1722281;82;21120;-85
2021/03/08 05:03:26;;;;;;;27.37;20.23;;;;;;;2.02;68.11;99522.72;1713532;82;21196;-85
2021/03/08 05:05:56;;;;;;;24.53;19.03;;;;;;;2.08;67.77;99533.44;1714187;83;21356;-87
2021/03/08 05:08:24;;;;;;;21.63;16.03;;;;;;;2.06;67.82;99528.00;1699268;83;21942;-85
2021/03/08 05:10:51;;;;;;;18.97;13.90;;;;;;;2.04;67.49;99525.52;1680701;84;21222;-85
2021/03/08 05:13:18;;;;;;;18.70;15.03;;;;;;;2.03;67.38;99525.17;1709398;82;21102;-84
2021/03/08 05:15:48;;;;;;;17.13;14.97;;;;;;;2.02;67.27;99525.35;1687556;83;21347;-84
2021/03/08 05:18:16;;;;;;;19.93;15.30;;;;;;;2.04;67.05;99535.22;1702228;82;21789;-83
2021/03/08 05:20:44;;;;;;;15.80;13.40;;;;;;;2.07;66.78;99537.06;1659747;83;21349;-83
2021/03/08 05:23:11;;;;;;;14.07;12.40;;;;;;;2.04;66.71;99533.91;1705096;82;21231;-84
2021/03/08 05:25:40;;;;;;;16.20;13.03;;;;;;;2.05;66.75;99536.36;1706672;82;21320;-85
2021/03/08 05:28:11;;;;;;;14.80;13.20;;;;;;;2.02;66.87;99538.00;1711337;82;21190;-84
2021/03/08 05:30:39;;;;;;;15.47;13.10;;;;;;;2.01;67.02;99540.77;1695228;83;21965;-83
2021/03/08 05:33:16;;;;;;;16.30;14.47;;;;;;;2.01;67.29;99546.84;1693761;83;21208;-82
2021/03/08 05:35:43;;;;;;;18.62;15.00;;;;;;;2.04;67.49;99552.31;1674157;84;21173;-83
2021/03/08 05:38:10;;;;;;;15.43;13.57;;;;;;;2.03;67.73;99554.09;1668993;84;21180;-85
2021/03/08 05:40:48;;;;;;;15.93;13.40;;;;;;;2.04;67.73;99566.27;1670945;84;21200;-85
2021/03/08 05:43:16;;;;;;;13.77;12.37;;;;;;;2.06;68.18;99567.44;1675771;84;21340;-84
2021/03/08 05:46:01;;;;;;;12.50;10.13;;;;;;;2.03;68.45;99561.97;1656620;83;21101;-83
2021/03/08 05:48:59;;;;;;;12.20;9.20;;;;;;;2.12;68.13;99566.32;1705528;82;21702;-83
2021/03/08 05:51:45;;;;;;;;;;;;;;;2.20;67.27;99574.76;1714430;82;21218;-85
2021/03/08 05:54:52;;;;;;;6.07;5.23;;;;;;;2.10;66.24;99579.30;1693228;82;21057;-84
2021/03/08 05:57:26;;;;;;;5.90;5.13;;;;;;;1.93;65.54;99590.16;1669251;83;21125;-85
2021/03/08 05:59:59;;;;;;;4.97;3.83;;;;;;;1.81;64.47;99597.45;1677543;84;22154;-84
2021/03/08 06:02:55;;;;;;;5.23;4.20;;;;;;;1.78;64.29;99600.37;1624620;85;21126;-84
2021/03/08 06:05:40;;;;;;;3.53;3.23;;;;;;;1.80;63.11;99597.59;1654899;85;21221;-84
2021/03/08 06:08:42;;;;;;;2.73;2.20;;;;;;;1.74;62.12;99606.41;1624889;85;21399;-84
2021/03/08 06:11:10;;;;;;;5.43;4.77;;;;;;;1.73;62.18;99611.34;1656136;84;21205;-83
2021/03/08 06:13:57;;;;;;;3.00;2.30;;;;;;;1.71;62.13;99614.61;1682422;84;21329;-82
2021/03/08 06:16:33;;;;;;;2.07;1.87;;;;;;;1.71;62.03;99623.80;1682495;84;21299;-84
2021/03/08 06:19:04;;;;;;;1.00;0.93;;;;;;;1.69;61.08;99617.84;1686229;84;21173;-83
2021/03/08 06:21:37;;;;;;;2.87;1.23;;;;;;;1.68;60.23;99633.28;1699517;83;21306;-83
2021/03/08 06:24:07;;;;;;;2.70;0.70;;;;;;;1.65;59.23;99634.06;1709457;82;21024;-84
2021/03/08 06:26:34;;;;;;;1.20;0.37;;;;;;;1.62;59.04;99636.51;1717248;82;21302;-84
2021/03/08 06:29:01;;;;;;;2.43;0.70;;;;;;;1.62;59.21;99646.17;1710932;82;21294;-83
2021/03/08 06:31:30;;;;;;;0.87;0.37;;;;;;;1.63;59.00;99649.97;1718033;83;21140;-85
2021/03/08 06:33:58;;;;;;;2.20;0.40;;;;;;;1.60;59.09;99650.75;1694255;83;21159;-85
2021/03/08 06:36:26;;;;;;;3.10;0.50;;;;;;;1.64;58.89;99650.32;1703125;82;21605;-87
2021/03/08 06:38:52;;;;;;;2.07;0.30;;;;;;;1.59;58.08;99655.19;1707977;82;21211;-86
2021/03/08 06:41:20;;;;;;;0.80;0.43;;;;;;;1.58;57.68;99650.89;1716956;82;21184;-83
2021/03/08 06:43:47;;;;;;;0.73;0.40;;;;;;;1.51;57.88;99658.55;1697066;82;21199;-84
2021/03/08 06:46:16;;;;;;;1.70;0.30;;;;;;;1.52;57.75;99664.13;1711064;82;21346;-83
2021/03/08 06:48:45;;;;;;;0.63;0.30;;;;;;;1.50;57.53;99670.01;1702702;82;21199;-82
2021/03/08 06:51:17;;;;;;;1.33;0.40;;;;;;;1.51;56.88;99664.30;1636077;80;102309;-83
2021/03/08 06:53:46;;;;;;;0.50;0.40;;;;;;;1.51;56.68;99662.98;1613618;85;254707;-81
2021/03/08 06:56:24;;;;;;;1.57;0.40;;;;;;;1.54;56.65;99670.09;1661170;84;21133;-84
2021/03/08 06:59:13;;;;;;;1.70;0.67;;;;;;;1.55;56.57;99668.27;1680461;84;22153;-84
2021/03/08 07:01:43;;;;;;;1.53;0.53;;;;;;;1.61;56.55;99663.73;1720139;82;21133;-83
2021/03/08 07:04:19;;;;;;;1.47;0.30;;;;;;;1.57;56.05;99657.13;1691529;82;21327;-83
2021/03/08 07:07:06;;;;;;;0.60;0.20;;;;;;;1.57;56.47;99655.00;1694578;83;22147;-84
2021/03/08 07:09:49;;;;;;;2.52;0.70;;;;;;;1.54;55.80;99651.70;1674537;84;21198;-83
2021/03/08 07:12:52;;;;;;;0.50;0.20;;;;;;;1.55;55.71;99639.38;1750819;77;23011;-81
2021/03/08 07:15:28;;;;;;;0.83;0.20;;;;;;;1.50;55.90;99659.50;1675353;83;21438;-87
2021/03/08 07:17:55;;;;;;;0.23;0.20;;;;;;;1.57;56.01;99665.51;1645323;84;21326;-83
2021/03/08 07:20:27;;;;;;;2.33;0.83;;;;;;;1.61;55.80;99662.92;1671768;84;21736;-83
2021/03/08 07:22:55;;;;;;;1.20;0.40;;;;;;;1.67;55.71;99664.45;1657725;82;21106;-84
2021/03/08 07:25:31;;;;;;;1.20;0.83;;;;;;;1.72;55.95;99662.22;1621181;85;21721;-83
2021/03/08 07:28:02;;;;;;;1.87;0.80;;;;;;;1.77;56.21;99667.52;1625347;85;21189;-83
2021/03/08 07:30:37;;;;;;;2.17;0.50;;;;;;;1.87;56.27;99670.92;1619844;85;188396;-83
2021/03/08 07:33:14;;;;;;;3.13;0.70;;;;;;;1.93;55.79;99672.95;1568580;87;159776;-84
2021/03/08 07:35:48;;;;;;;0.68;0.40;;;;;;;2.02;55.01;99669.43;1650803;83;21172;-84
2021/03/08 07:38:34;;;;;;;1.60;0.30;;;;;;;2.03;54.50;99671.06;1680505;83;21216;-85
2021/03/08 07:41:19;;;;;;;0.73;0.23;;;;;;;2.04;54.17;99671.42;1678595;83;21195;-84
2021/03/08 07:43:49;;;;;;;0.90;0.60;;;;;;;2.10;54.70;99670.81;1679471;84;21920;-84
2021/03/08 07:46:36;;;;;;;0.73;0.30;;;;;;;2.18;54.22;99678.45;1690077;83;21206;-88
2021/03/08 07:49:07;;;;;;;0.60;0.47;;;;;;;2.26;53.88;99671.47;1677789;83;21908;-84
2021/03/08 07:51:35;;;;;;;1.37;0.20;;;;;;;2.27;53.38;99651.25;1648657;85;21631;-84
2021/03/08 07:54:06;;;;;;;1.37;0.40;;;;;;;2.31;51.40;99667.05;1586823;84;67190;-83
2021/03/08 07:56:34;;;;;;;2.27;0.73;;;;;;;2.33;51.36;99669.86;1605855;87;21170;-84
2021/03/08 07:59:01;;;;;;;0.83;0.40;;;;;;;2.42;50.06;99661.56;1663553;85;21493;-85
2021/03/08 08:01:29;;;;;;;1.13;0.80;;;;;;;2.41;49.88;99664.34;1667115;84;21114;-84
2021/03/08 08:03:58;;;;;;;1.80;0.60;;;;;;;2.46;49.45;99668.66;1672584;83;21156;-84
2021/03/08 08:06:26;;;;;;;1.00;0.27;;;;;;;2.53;48.87;99667.08;1646370;85;21215;-84
2021/03/08 08:08:56;;;;;;;1.60;0.30;;;;;;;2.61;48.83;99665.81;1660645;85;21245;-83
2021/03/08 08:11:29;;;;;;;0.90;0.50;;;;;;;2.73;48.14;99665.06;1666905;84;22311;-83
2021/03/08 08:14:04;;;;;;;1.50;0.50;;;;;;;2.81;47.62;99666.45;1651039;85;21192;-85
2021/03/08 08:16:34;;;;;;;2.50;2.00;;;;;;;2.84;47.53;99662.18;1656016;85;21344;-84
2021/03/08 08:21:15;;;;;;;0.87;0.53;;;;;;;3.03;46.63;99651.11;1795677;78;23024;-85
2021/03/08 08:23:47;;;;;;;1.67;0.53;;;;;;;2.28;46.44;99524.88;1746049;79;21112;-84
2021/03/08 08:26:18;;;;;;;3.23;1.27;;;;;;;3.15;46.12;99659.58;1734350;81;21139;-84
2021/03/08 08:28:47;;;;;;;3.93;1.00;;;;;;;3.22;46.38;99656.16;1727515;81;21187;-84
2021/03/08 08:31:15;;;;;;;2.33;0.80;;;;;;;3.31;44.68;99642.05;1734513;81;21733;-84
2021/03/08 08:33:43;;;;;;;1.43;0.47;;;;;;;2.57;44.23;99526.34;1727924;81;21084;-84
2021/03/08 08:36:24;;;;;;;1.03;0.30;;;;;;;3.39;44.83;99660.16;1692945;83;21211;-84
2021/03/08 08:39:03;;;;;;;1.07;0.50;;;;;;;3.40;45.03;99657.37;1658663;85;21221;-85
2021/03/08 08:41:33;;;;;;;1.07;0.40;;;;;;;3.40;44.68;99648.16;1658662;84;21662;-84
2021/03/08 08:44:31;;;;;;;0.70;0.23;;;;;;;3.35;44.53;99650.43;1662895;84;21212;-84
2021/03/08 08:47:19;;;;;;;0.30;0.20;;;;;;;3.34;45.15;99661.16;1572174;89;21215;-84
2021/03/08 08:49:53;;;;;;;5.10;0.20;;;;;;;3.30;43.91;99661.95;1627968;85;21644;-85
2021/03/08 08:52:52;;;;;;;1.07;0.20;;;;;;;3.23;43.11;99670.97;1637040;86;21227;-84
2021/03/08 08:55:25;;;;;;;0.70;0.10;;;;;;;3.19;42.21;99671.45;1640664;83;21193;-84
2021/03/08 08:58:25;;;;;;;0.20;0.20;;;;;;;3.20;42.88;99667.34;1615798;85;21191;-84
2021/03/08 09:01:14;;;;;;;0.20;0.20;;;;;;;3.29;42.57;99666.37;1633173;84;20982;-82
2021/03/08 09:04:06;;;;;;;5.00;0.27;;;;;;;3.28;41.58;99671.33;1635737;86;21709;-85
2021/03/08 09:06:55;;;;;;;0.20;0.10;;;;;;;3.22;40.92;99670.64;1641833;86;21152;-83
2021/03/08 09:09:37;;;;;;;0.65;0.17;;;;;;;3.12;40.09;99674.69;1628980;86;21958;-84
2021/03/08 09:12:09;;;;;;;0.30;0.10;;;;;;;3.13;40.43;99676.84;1635146;84;21905;-84
2021/03/08 09:14:47;;;;;;;0.93;0.20;;;;;;;3.18;40.16;99679.81;1630704;86;21184;-84
2021/03/08 09:17:34;;;;;;;0.97;0.50;;;;;;;3.26;39.84;99668.03;1738310;80;22948;-85
2021/03/08 09:20:08;;;;;;;2.20;0.20;;;;;;;3.29;40.05;99683.50;1714814;83;21194;-83
2021/03/08 09:22:51;;;;;;;0.40;0.10;;;;;;;3.38;40.25;99694.09;1665389;84;21078;-84
2021/03/08 09:25:24;;;;;;;0.30;0.20;;;;;;;3.53;40.05;99695.64;1625586;85;21204;-84
2021/03/08 09:28:10;;;;;;;1.53;0.50;;;;;;;3.66;38.73;99684.98;1652066;85;21670;-83
2021/03/08 09:30:49;;;;;;;0.20;0.10;;;;;;;3.72;38.95;99684.02;1650011;85;21217;-84
2021/03/08 09:33:19;;;;;;;0.97;0.20;;;;;;;3.77;38.33;99681.70;1634231;85;21173;-85
2021/03/08 09:35:55;;;;;;;0.80;0.20;;;;;;;3.81;37.76;99680.42;1660702;85;21237;-83
2021/03/08 09:38:26;;;;;;;0.70;0.30;;;;;;;3.84;38.49;99680.08;1666357;85;21206;-83
2021/03/08 09:41:00;;;;;;;0.60;0.30;;;;;;;3.87;37.62;99690.31;1661032;85;22253;-84
2021/03/08 09:43:33;;;;;;;4.00;0.43;;;;;;;3.80;37.01;99692.75;1633183;86;21311;-85
2021/03/08 09:46:11;;;;;;;2.10;0.33;;;;;;;3.69;36.82;99703.13;1611476;86;21074;-84
2021/03/08 09:48:43;;;;;;;3.40;0.50;;;;;;;3.56;36.75;99702.75;1650156;85;21886;-84
2021/03/08 09:51:15;;;;;;;0.20;0.10;;;;;;;3.44;37.12;99692.14;1622014;86;21209;-84
2021/03/08 09:53:54;;;;;;;0.37;0.20;;;;;;;3.42;37.65;99695.42;1641389;86;21312;-86
2021/03/08 09:56:24;;;;;;;1.43;0.50;;;;;;;3.41;37.77;99689.81;1662285;84;21098;-85
2021/03/08 09:59:10;;;;;;;0.60;0.47;;;;;;;3.52;37.10;99694.80;1662152;85;21205;-81
2021/03/08 10:01:43;;;;;;;0.77;0.33;;;;;;;3.59;36.83;99691.87;1658865;84;21798;-83
2021/03/08 10:04:18;;;;;;;2.00;0.20;;;;;;;3.66;35.86;99687.61;1653691;86;21184;-84
2021/03/08 10:06:46;;;;;;;3.60;0.90;;;;;;;3.77;35.94;99692.25;1644312;86;21677;-82
2021/03/08 10:09:23;;;;;;;1.17;0.10;;;;;;;3.86;35.78;99700.05;1655081;86;21324;-81
2021/03/08 10:12:02;;;;;;;0.30;0.10;;;;;;;3.96;35.96;99686.72;1629030;86;21651;-84
2021/03/08 10:14:31;;;;;;;1.60;0.30;;;;;;;4.04;35.69;99697.27;1612654;87;21188;-84
2021/03/08 10:17:09;;;;;;;2.83;0.10;;;;;;;4.09;35.43;99688.89;1609167;87;21353;-84
2021/03/08 10:19:57;;;;;;;2.27;0.10;;;;;;;4.16;35.34;99678.50;1601199;88;21244;-84
2021/03/08 10:22:41;;;;;;;0.98;0.17;;;;;;;4.25;34.64;99692.03;1587468;85;21276;-84
2021/03/08 10:25:32;;;;;;;4.60;0.10;;;;;;;4.28;34.06;99685.12;1600423;88;21224;-84
2021/03/08 10:28:04;;;;;;;0.63;0.10;;;;;;;4.25;33.64;99668.29;1601477;88;21230;-85
2021/03/08 10:30:34;;;;;;;1.00;0.10;;;;;;;4.24;33.83;99678.53;1602870;88;21343;-84
2021/03/08 10:33:05;;;;;;;0.70;0.10;;;;;;;4.25;33.87;99685.44;1601572;88;21238;-83
2021/03/08 10:35:40;;;;;;;0.87;0.20;;;;;;;4.28;34.33;99689.08;1602404;88;21547;-82
2021/03/08 10:38:09;;;;;;;1.07;0.10;;;;;;;4.25;34.13;99684.12;1599983;87;21177;-85
2021/03/08 10:40:38;;;;;;;0.70;0.10;;;;;;;4.20;34.06;99675.39;1601875;88;21158;-83
2021/03/08 10:43:09;;;;;;;0.80;0.30;;;;;;;4.08;33.77;99688.05;1603579;88;21628;-85
2021/03/08 10:45:37;;;;;;;2.80;0.27;;;;;;;3.90;34.00;99678.95;1603502;88;21030;-84
2021/03/08 10:48:11;;;;;;;3.17;0.20;;;;;;;3.79;34.87;99685.03;1604163;88;21219;-83
2021/03/08 10:50:50;;;;;;;0.27;0.10;;;;;;;3.73;34.77;99689.13;1605365;88;21304;-83
2021/03/08 10:53:21;;;;;;;3.17;0.77;;;;;;;3.72;34.42;99683.52;1599893;88;21330;-83
2021/03/08 10:55:51;;;;;;;1.60;0.30;;;;;;;3.70;34.37;99681.03;1614816;87;21023;-84
2021/03/08 10:58:35;;;;;;;1.23;0.43;;;;;;;3.68;34.22;99679.55;1639517;86;21153;-82
2021/03/08 11:01:08;;;;;;;1.70;0.23;;;;;;;3.70;34.09;99684.98;1640746;86;21074;-83
2021/03/08 11:03:39;;;;;;;1.57;0.30;;;;;;;3.68;35.05;99688.28;1637305;86;21177;-82
2021/03/08 11:06:17;;;;;;;0.40;0.20;;;;;;;3.69;35.48;99693.89;1640495;86;21810;-84
2021/03/08 11:09:00;;;;;;;0.37;0.20;;;;;;;3.66;35.83;99694.20;1640758;87;21153;-83
2021/03/08 11:11:32;;;;;;;0.70;0.30;;;;;;;3.63;36.46;99706.38;1640883;86;21062;-82
2021/03/08 11:14:04;;;;;;;1.00;0.13;;;;;;;3.54;35.50;99693.33;1634422;86;21364;-83
2021/03/08 11:16:56;;;;;;;1.33;0.40;;;;;;;3.36;36.47;99691.61;1813665;77;22925;-83
2021/03/08 11:19:25;;;;;;;;;;;;;;;3.23;37.54;99701.25;1748399;81;21293;-83
2021/03/08 11:22:13;;;;;;;0.77;0.20;;;;;;;3.18;37.68;99692.17;1746955;80;20496;-83
2021/03/08 11:24:51;;;;;;;1.20;0.10;;;;;;;3.08;37.08;99681.75;1749098;81;21180;-84
2021/03/08 11:27:27;;;;;;;0.50;0.20;;;;;;;3.08;37.44;99672.53;1753185;80;21797;-82
2021/03/08 11:30:11;;;;;;;2.60;0.67;;;;;;;3.06;36.66;99685.85;1747713;81;21204;-82
2021/03/08 11:32:41;;;;;;;1.03;0.53;;;;;;;2.46;36.63;99572.15;1750550;81;21418;-83
2021/03/08 11:35:16;;;;;;;0.67;0.23;;;;;;;3.12;36.06;99680.45;1710114;80;21073;-83
2021/03/08 11:37:48;;;;;;;3.60;0.30;;;;;;;2.55;36.50;99585.38;1715236;82;21785;-83
2021/03/08 11:40:18;;;;;;;1.50;0.50;;;;;;;3.19;36.27;99685.94;1732066;81;21196;-83
2021/03/08 11:42:47;;;;;;;1.47;0.77;;;;;;;3.20;36.38;99679.67;1730612;82;21840;-82
2021/03/08 11:45:15;;;;;;;1.63;1.33;;;;;;;3.24;36.57;99685.80;1761880;80;21057;-83
2021/03/08 11:47:43;;;;;;;3.77;2.50;;;;;;;3.28;36.51;99688.95;1795615;79;21192;-83
2021/03/08 11:50:21;;;;;;;2.90;2.20;;;;;;;3.34;36.78;99684.86;1761279;80;21186;-82
2021/03/08 11:52:50;;;;;;;2.80;0.90;;;;;;;3.42;36.60;99695.42;1765544;80;21175;-83
2021/03/08 11:55:19;;;;;;;2.53;0.90;;;;;;;3.43;36.74;99685.23;1704744;82;21423;-84
2021/03/08 11:57:49;;;;;;;7.80;0.53;;;;;;;3.36;37.60;99693.42;1718422;78;21211;-84
2021/03/08 12:00:23;;;;;;;1.37;0.50;;;;;;;3.28;38.23;99693.72;1689784;82;21927;-83
2021/03/08 12:02:52;;;;;;;3.83;1.20;;;;;;;3.12;38.78;99686.53;1780889;80;21164;-84
2021/03/08 12:05:21;;;;;;;2.80;1.97;;;;;;;3.13;39.58;99705.81;1731923;80;21341;-84
2021/03/08 12:07:49;;;;;;;2.00;1.03;;;;;;;3.02;40.15;99704.77;1710762;82;21325;-85
2021/03/08 12:10:19;;;;;;;1.77;0.43;;;;;;;2.92;40.27;99713.58;1740405;80;21756;-83